Swift Current Airport, Saskatchewan

Past 24 Hour Conditions

Date / Time
(CST)
Conditions Temp
(°F)
Humidity
(%)
Dew Point
(°F)
Wind
(mph)
Pressure
(inches)
Visibility
(miles)
23 October 2014
00:00 Clear 43 74 35 SSW 14 29.8 10
22 October 2014
23:00 Clear 43 73 35 SSW 11 29.8 10
22:00 Clear 43 73 35 SSW 10 29.8 10
21:00 Clear 40   79 34 SSW 9 29.9 10
20:00 Clear 43 72 34 SSW 9 29.8 10
19:00 Clear 46 64 35 WSW 9 29.8 10
18:00 Sunny 50 60 37 WSW 9 29.8 10
17:00 Sunny 57 45 36 WSW 15 29.8 10
16:00 Sunny 59   40 35 W 14 gust 20 29.8 10
15:00 Sunny 59   47 39 W 14 gust 20 29.8 10
14:00 Sunny 57 55 41 WSW 17 gust 23 29.8 10
13:00 Partly Cloudy 54 65 43 W 16 gust 24 29.8 10
12:00 Sunny 51 78 45 W 18 29.8 10
11:00 Cloudy 47 93 45 W 17 gust 23 29.8 10
10:00 Light Rain 47 81 41 NW 15 29.8 10
9:00 Light Rain 45 93 43 WNW 13 29.8 9
8:00 Rain 46 96 45 W 20 gust 25 29.8 4
7:00 Light Rain 46 97 46 WNW 15 gust 22 29.8 5
6:00 Light Rain 47 96 46 WNW 17 gust 23 29.8 10
5:00 Cloudy 47 95 46 WNW 15 29.7 10
4:00 Mostly Cloudy 46 94 44 WNW 11 29.7 10
3:00 Cloudy 46 90 44 WNW 14 29.7 10
2:00 Mostly Cloudy 47 89 44 W 11 gust 17 29.7 10
1:00 Mostly Cloudy 46 89 43 W 13 29.7 10
00:00 Mostly Cloudy 47 84 43 WNW 16 29.6 10
N/A Not available
↑ Highest temperature
↓ Lowest temperature

If you require additional historical weather information, please visit Climate Data Online.

Date modified: